Terminal Aerodrome Forecast
Issued by NWS

Home | Current Version | Previous Version | Text Only | Print | Product List | Glossary Off
Versions: 1 2 3 4 5 6 7 8 9 10 11 12 13 14 15 16 17 18 19 20 21 22 23 24 25 26 27

000
FTUS43 KBIS 261600 AAC
TAFMOT
TAF AMD
KMOT 261600Z 2616/2712 30008KT P6SM OVC012
     FM261900 24007KT P6SM VCSH BKN020 OVC035
     FM262200 23008KT P6SM VCSH SCT015 OVC035
     FM270400 24005KT 5SM BR VCSH SCT015 OVC035
     FM270700 30007KT 3SM BR VCSH BKN035 OVC050=

USA.gov is the U.S. government's official web portal to all federal, state and local government web resources and services.